sensor_id;sensor_type;location;lat;lon;timestamp;P1;durP1;ratioP1;P2;durP2;ratioP2
7571;SDS011;3827;49.928;8.548;2023-05-25T00:02:18;4.70;;;2.40;;
7571;SDS011;3827;49.928;8.548;2023-05-25T00:04:49;2.20;;;1.90;;
7571;SDS011;3827;49.928;8.548;2023-05-25T00:07:16;2.80;;;1.85;;
7571;SDS011;3827;49.928;8.548;2023-05-25T00:09:43;4.57;;;2.53;;
7571;SDS011;3827;49.928;8.548;2023-05-25T00:12:10;4.13;;;2.35;;
7571;SDS011;3827;49.928;8.548;2023-05-25T00:14:37;3.55;;;2.10;;
7571;SDS011;3827;49.928;8.548;2023-05-25T00:17:04;3.80;;;2.10;;
7571;SDS011;3827;49.928;8.548;2023-05-25T00:19:34;2.53;;;1.98;;
7571;SDS011;3827;49.928;8.548;2023-05-25T00:22:02;2.13;;;1.80;;
7571;SDS011;3827;49.928;8.548;2023-05-25T00:24:29;3.50;;;2.13;;
7571;SDS011;3827;49.928;8.548;2023-05-25T00:26:56;3.70;;;2.30;;
7571;SDS011;3827;49.928;8.548;2023-05-25T00:29:23;2.50;;;2.13;;
7571;SDS011;3827;49.928;8.548;2023-05-25T00:31:50;3.90;;;2.30;;
7571;SDS011;3827;49.928;8.548;2023-05-25T00:34:17;2.78;;;2.10;;
7571;SDS011;3827;49.928;8.548;2023-05-25T00:36:44;3.85;;;2.20;;
7571;SDS011;3827;49.928;8.548;2023-05-25T00:39:13;5.72;;;2.58;;
7571;SDS011;3827;49.928;8.548;2023-05-25T00:41:41;3.20;;;2.47;;
7571;SDS011;3827;49.928;8.548;2023-05-25T00:44:10;3.33;;;2.17;;
7571;SDS011;3827;49.928;8.548;2023-05-25T00:46:40;3.35;;;2.45;;
7571;SDS011;3827;49.928;8.548;2023-05-25T00:49:12;3.92;;;2.65;;
7571;SDS011;3827;49.928;8.548;2023-05-25T00:51:40;3.47;;;2.50;;
7571;SDS011;3827;49.928;8.548;2023-05-25T00:54:10;3.80;;;2.47;;
7571;SDS011;3827;49.928;8.548;2023-05-25T00:56:41;3.88;;;2.28;;
7571;SDS011;3827;49.928;8.548;2023-05-25T00:59:13;3.53;;;2.53;;
7571;SDS011;3827;49.928;8.548;2023-05-25T01:01:42;3.40;;;2.42;;
7571;SDS011;3827;49.928;8.548;2023-05-25T01:04:11;3.22;;;2.58;;
7571;SDS011;3827;49.928;8.548;2023-05-25T01:06:41;3.67;;;2.70;;
7571;SDS011;3827;49.928;8.548;2023-05-25T01:09:11;3.80;;;2.67;;
7571;SDS011;3827;49.928;8.548;2023-05-25T01:11:43;3.70;;;2.60;;
7571;SDS011;3827;49.928;8.548;2023-05-25T01:14:14;4.75;;;2.70;;
7571;SDS011;3827;49.928;8.548;2023-05-25T01:16:44;3.03;;;2.65;;
7571;SDS011;3827;49.928;8.548;2023-05-25T01:19:12;4.07;;;2.85;;
7571;SDS011;3827;49.928;8.548;2023-05-25T01:21:41;3.60;;;2.65;;
7571;SDS011;3827;49.928;8.548;2023-05-25T01:24:14;4.35;;;2.80;;
7571;SDS011;3827;49.928;8.548;2023-05-25T01:26:47;5.10;;;2.80;;
7571;SDS011;3827;49.928;8.548;2023-05-25T01:29:19;4.68;;;3.17;;
7571;SDS011;3827;49.928;8.548;2023-05-25T01:31:47;4.85;;;3.47;;
7571;SDS011;3827;49.928;8.548;2023-05-25T01:34:15;6.22;;;3.10;;
7571;SDS011;3827;49.928;8.548;2023-05-25T01:36:44;4.85;;;2.92;;
7571;SDS011;3827;49.928;8.548;2023-05-25T01:39:11;7.20;;;3.15;;
7571;SDS011;3827;49.928;8.548;2023-05-25T01:41:38;6.20;;;3.20;;
7571;SDS011;3827;49.928;8.548;2023-05-25T01:44:05;5.38;;;3.38;;
7571;SDS011;3827;49.928;8.548;2023-05-25T01:46:33;5.18;;;3.17;;
7571;SDS011;3827;49.928;8.548;2023-05-25T01:49:06;5.15;;;3.38;;
7571;SDS011;3827;49.928;8.548;2023-05-25T01:51:41;4.38;;;2.88;;
7571;SDS011;3827;49.928;8.548;2023-05-25T01:54:19;5.53;;;3.40;;
7571;SDS011;3827;49.928;8.548;2023-05-25T01:56:48;5.13;;;3.60;;
7571;SDS011;3827;49.928;8.548;2023-05-25T01:59:18;4.53;;;3.43;;
7571;SDS011;3827;49.928;8.548;2023-05-25T02:01:47;5.10;;;3.20;;
7571;SDS011;3827;49.928;8.548;2023-05-25T02:04:15;6.63;;;3.92;;
7571;SDS011;3827;49.928;8.548;2023-05-25T02:06:47;4.75;;;3.55;;
7571;SDS011;3827;49.928;8.548;2023-05-25T02:09:16;5.68;;;3.25;;
7571;SDS011;3827;49.928;8.548;2023-05-25T02:11:43;6.18;;;3.70;;
7571;SDS011;3827;49.928;8.548;2023-05-25T02:14:10;6.20;;;3.63;;
7571;SDS011;3827;49.928;8.548;2023-05-25T02:16:36;7.03;;;3.55;;
7571;SDS011;3827;49.928;8.548;2023-05-25T02:19:03;4.38;;;3.50;;
7571;SDS011;3827;49.928;8.548;2023-05-25T02:21:30;4.63;;;3.50;;
7571;SDS011;3827;49.928;8.548;2023-05-25T02:23:58;6.20;;;3.58;;
7571;SDS011;3827;49.928;8.548;2023-05-25T02:26:25;5.22;;;3.70;;
7571;SDS011;3827;49.928;8.548;2023-05-25T02:28:52;6.38;;;4.07;;
7571;SDS011;3827;49.928;8.548;2023-05-25T02:31:19;5.50;;;3.63;;
7571;SDS011;3827;49.928;8.548;2023-05-25T02:33:46;6.00;;;3.67;;
7571;SDS011;3827;49.928;8.548;2023-05-25T02:36:13;6.10;;;4.40;;
7571;SDS011;3827;49.928;8.548;2023-05-25T02:38:40;5.47;;;3.90;;
7571;SDS011;3827;49.928;8.548;2023-05-25T02:41:08;6.05;;;3.67;;
7571;SDS011;3827;49.928;8.548;2023-05-25T02:43:35;6.35;;;4.32;;
7571;SDS011;3827;49.928;8.548;2023-05-25T02:46:03;5.57;;;3.97;;
7571;SDS011;3827;49.928;8.548;2023-05-25T02:48:30;5.13;;;3.75;;
7571;SDS011;3827;49.928;8.548;2023-05-25T02:50:56;5.88;;;4.05;;
7571;SDS011;3827;49.928;8.548;2023-05-25T02:53:23;7.20;;;4.28;;
7571;SDS011;3827;49.928;8.548;2023-05-25T02:55:50;6.35;;;4.00;;
7571;SDS011;3827;49.928;8.548;2023-05-25T02:58:18;7.13;;;4.20;;
7571;SDS011;3827;49.928;8.548;2023-05-25T03:00:45;7.95;;;4.25;;
7571;SDS011;3827;49.928;8.548;2023-05-25T03:03:12;7.32;;;4.22;;
7571;SDS011;3827;49.928;8.548;2023-05-25T03:05:39;7.07;;;3.95;;
7571;SDS011;3827;49.928;8.548;2023-05-25T03:08:05;7.43;;;4.05;;
7571;SDS011;3827;49.928;8.548;2023-05-25T03:10:32;5.15;;;4.28;;
7571;SDS011;3827;49.928;8.548;2023-05-25T03:12:59;5.43;;;4.03;;
7571;SDS011;3827;49.928;8.548;2023-05-25T03:15:27;7.63;;;4.40;;
7571;SDS011;3827;49.928;8.548;2023-05-25T03:17:54;5.82;;;4.03;;
7571;SDS011;3827;49.928;8.548;2023-05-25T03:20:25;8.50;;;4.90;;
7571;SDS011;3827;49.928;8.548;2023-05-25T03:22:51;7.63;;;4.70;;
7571;SDS011;3827;49.928;8.548;2023-05-25T03:25:19;5.78;;;3.85;;
7571;SDS011;3827;49.928;8.548;2023-05-25T03:27:46;5.70;;;4.07;;
7571;SDS011;3827;49.928;8.548;2023-05-25T03:30:16;5.60;;;3.85;;
7571;SDS011;3827;49.928;8.548;2023-05-25T03:32:44;6.10;;;3.95;;
7571;SDS011;3827;49.928;8.548;2023-05-25T03:35:11;7.53;;;4.60;;
7571;SDS011;3827;49.928;8.548;2023-05-25T03:37:38;7.63;;;4.45;;
7571;SDS011;3827;49.928;8.548;2023-05-25T03:40:05;7.30;;;4.97;;
7571;SDS011;3827;49.928;8.548;2023-05-25T03:42:33;7.82;;;4.85;;
7571;SDS011;3827;49.928;8.548;2023-05-25T03:45:00;7.32;;;4.70;;
7571;SDS011;3827;49.928;8.548;2023-05-25T03:47:27;8.13;;;4.60;;
7571;SDS011;3827;49.928;8.548;2023-05-25T03:49:55;7.07;;;4.43;;
7571;SDS011;3827;49.928;8.548;2023-05-25T03:52:22;6.90;;;4.50;;
7571;SDS011;3827;49.928;8.548;2023-05-25T03:54:49;5.93;;;4.73;;
7571;SDS011;3827;49.928;8.548;2023-05-25T03:57:16;8.13;;;4.78;;
7571;SDS011;3827;49.928;8.548;2023-05-25T03:59:42;6.85;;;4.93;;
7571;SDS011;3827;49.928;8.548;2023-05-25T04:02:09;7.90;;;5.15;;
7571;SDS011;3827;49.928;8.548;2023-05-25T04:04:36;7.68;;;5.50;;
7571;SDS011;3827;49.928;8.548;2023-05-25T04:07:07;6.63;;;5.28;;
7571;SDS011;3827;49.928;8.548;2023-05-25T04:09:33;9.48;;;5.30;;
7571;SDS011;3827;49.928;8.548;2023-05-25T04:12:00;6.63;;;4.80;;
7571;SDS011;3827;49.928;8.548;2023-05-25T04:14:27;9.95;;;6.30;;
7571;SDS011;3827;49.928;8.548;2023-05-25T04:16:54;8.50;;;5.50;;
7571;SDS011;3827;49.928;8.548;2023-05-25T04:19:23;8.98;;;5.75;;
7571;SDS011;3827;49.928;8.548;2023-05-25T04:21:49;7.77;;;5.37;;
7571;SDS011;3827;49.928;8.548;2023-05-25T04:24:18;8.50;;;5.43;;
7571;SDS011;3827;49.928;8.548;2023-05-25T04:26:44;8.95;;;5.75;;
7571;SDS011;3827;49.928;8.548;2023-05-25T04:29:11;8.98;;;5.90;;
7571;SDS011;3827;49.928;8.548;2023-05-25T04:31:38;9.00;;;5.30;;
7571;SDS011;3827;49.928;8.548;2023-05-25T04:34:05;7.63;;;6.03;;
7571;SDS011;3827;49.928;8.548;2023-05-25T04:36:33;7.88;;;5.75;;
7571;SDS011;3827;49.928;8.548;2023-05-25T04:39:02;7.75;;;5.38;;
7571;SDS011;3827;49.928;8.548;2023-05-25T04:41:32;9.07;;;5.78;;
7571;SDS011;3827;49.928;8.548;2023-05-25T04:43:59;9.97;;;6.10;;
7571;SDS011;3827;49.928;8.548;2023-05-25T04:46:27;9.50;;;5.82;;
7571;SDS011;3827;49.928;8.548;2023-05-25T04:48:55;8.35;;;6.07;;
7571;SDS011;3827;49.928;8.548;2023-05-25T04:51:22;8.90;;;6.22;;
7571;SDS011;3827;49.928;8.548;2023-05-25T04:53:49;10.20;;;6.25;;
7571;SDS011;3827;49.928;8.548;2023-05-25T04:56:16;9.50;;;6.00;;
7571;SDS011;3827;49.928;8.548;2023-05-25T04:58:44;9.00;;;5.78;;
7571;SDS011;3827;49.928;8.548;2023-05-25T05:01:11;9.80;;;5.70;;
7571;SDS011;3827;49.928;8.548;2023-05-25T05:03:37;9.02;;;5.63;;
7571;SDS011;3827;49.928;8.548;2023-05-25T05:06:04;8.93;;;5.72;;
7571;SDS011;3827;49.928;8.548;2023-05-25T05:08:31;9.55;;;5.32;;
7571;SDS011;3827;49.928;8.548;2023-05-25T05:10:58;9.05;;;5.65;;
7571;SDS011;3827;49.928;8.548;2023-05-25T05:13:25;6.78;;;5.35;;
7571;SDS011;3827;49.928;8.548;2023-05-25T05:15:53;6.78;;;5.00;;
7571;SDS011;3827;49.928;8.548;2023-05-25T05:18:20;8.52;;;4.90;;
7571;SDS011;3827;49.928;8.548;2023-05-25T05:20:46;7.30;;;4.72;;
7571;SDS011;3827;49.928;8.548;2023-05-25T05:23:13;7.93;;;4.90;;
7571;SDS011;3827;49.928;8.548;2023-05-25T05:25:40;7.68;;;5.00;;
7571;SDS011;3827;49.928;8.548;2023-05-25T05:28:07;8.93;;;4.82;;
7571;SDS011;3827;49.928;8.548;2023-05-25T05:30:34;7.95;;;4.85;;
7571;SDS011;3827;49.928;8.548;2023-05-25T05:33:02;8.93;;;5.00;;
7571;SDS011;3827;49.928;8.548;2023-05-25T05:35:29;7.15;;;4.50;;
7571;SDS011;3827;49.928;8.548;2023-05-25T05:37:56;5.80;;;4.63;;
7571;SDS011;3827;49.928;8.548;2023-05-25T05:40:23;9.63;;;4.57;;
7571;SDS011;3827;49.928;8.548;2023-05-25T05:42:50;8.57;;;4.40;;
7571;SDS011;3827;49.928;8.548;2023-05-25T05:45:16;8.10;;;4.00;;
7571;SDS011;3827;49.928;8.548;2023-05-25T05:47:43;5.03;;;3.80;;
7571;SDS011;3827;49.928;8.548;2023-05-25T05:50:12;8.38;;;4.28;;
7571;SDS011;3827;49.928;8.548;2023-05-25T05:52:38;5.32;;;3.75;;
7571;SDS011;3827;49.928;8.548;2023-05-25T05:55:05;4.72;;;3.90;;
7571;SDS011;3827;49.928;8.548;2023-05-25T05:57:33;5.68;;;3.97;;
7571;SDS011;3827;49.928;8.548;2023-05-25T05:59:59;5.45;;;3.38;;
7571;SDS011;3827;49.928;8.548;2023-05-25T06:02:29;6.03;;;3.70;;
7571;SDS011;3827;49.928;8.548;2023-05-25T06:04:55;4.78;;;3.47;;
7571;SDS011;3827;49.928;8.548;2023-05-25T06:07:24;5.85;;;3.50;;
7571;SDS011;3827;49.928;8.548;2023-05-25T06:09:52;4.40;;;3.28;;
7571;SDS011;3827;49.928;8.548;2023-05-25T06:12:20;4.68;;;3.30;;
7571;SDS011;3827;49.928;8.548;2023-05-25T06:14:46;6.53;;;3.40;;
7571;SDS011;3827;49.928;8.548;2023-05-25T06:17:16;5.93;;;3.20;;
7571;SDS011;3827;49.928;8.548;2023-05-25T06:19:43;4.03;;;3.05;;
7571;SDS011;3827;49.928;8.548;2023-05-25T06:22:10;5.20;;;3.38;;
7571;SDS011;3827;49.928;8.548;2023-05-25T06:24:38;3.97;;;3.00;;
7571;SDS011;3827;49.928;8.548;2023-05-25T06:27:05;6.38;;;3.20;;
7571;SDS011;3827;49.928;8.548;2023-05-25T06:29:32;4.55;;;3.10;;
7571;SDS011;3827;49.928;8.548;2023-05-25T06:31:59;4.15;;;2.92;;
7571;SDS011;3827;49.928;8.548;2023-05-25T06:34:26;4.82;;;2.92;;
7571;SDS011;3827;49.928;8.548;2023-05-25T06:36:52;5.07;;;2.83;;
7571;SDS011;3827;49.928;8.548;2023-05-25T06:39:19;4.85;;;3.05;;
7571;SDS011;3827;49.928;8.548;2023-05-25T06:41:48;4.53;;;2.80;;
7571;SDS011;3827;49.928;8.548;2023-05-25T06:44:15;4.30;;;2.65;;
7571;SDS011;3827;49.928;8.548;2023-05-25T06:46:42;4.88;;;3.15;;
7571;SDS011;3827;49.928;8.548;2023-05-25T06:49:09;5.63;;;2.75;;
7571;SDS011;3827;49.928;8.548;2023-05-25T06:51:36;4.65;;;2.90;;
7571;SDS011;3827;49.928;8.548;2023-05-25T06:54:03;5.70;;;2.95;;
7571;SDS011;3827;49.928;8.548;2023-05-25T06:56:32;3.28;;;2.53;;
7571;SDS011;3827;49.928;8.548;2023-05-25T06:59:00;4.20;;;2.70;;
7571;SDS011;3827;49.928;8.548;2023-05-25T07:01:27;5.18;;;2.50;;
7571;SDS011;3827;49.928;8.548;2023-05-25T07:03:53;5.38;;;2.50;;
7571;SDS011;3827;49.928;8.548;2023-05-25T07:06:20;5.43;;;2.88;;
7571;SDS011;3827;49.928;8.548;2023-05-25T07:08:47;6.57;;;2.97;;
7571;SDS011;3827;49.928;8.548;2023-05-25T07:11:14;2.95;;;2.65;;
7571;SDS011;3827;49.928;8.548;2023-05-25T07:13:44;4.82;;;2.80;;
7571;SDS011;3827;49.928;8.548;2023-05-25T07:16:12;4.40;;;3.05;;
7571;SDS011;3827;49.928;8.548;2023-05-25T07:18:39;6.03;;;3.23;;
7571;SDS011;3827;49.928;8.548;2023-05-25T07:21:06;4.70;;;3.08;;
7571;SDS011;3827;49.928;8.548;2023-05-25T07:23:34;4.65;;;3.03;;
7571;SDS011;3827;49.928;8.548;2023-05-25T07:26:01;4.65;;;3.03;;
7571;SDS011;3827;49.928;8.548;2023-05-25T07:28:28;4.05;;;2.95;;
7571;SDS011;3827;49.928;8.548;2023-05-25T07:30:55;4.00;;;2.60;;
7571;SDS011;3827;49.928;8.548;2023-05-25T07:33:23;4.50;;;3.00;;
7571;SDS011;3827;49.928;8.548;2023-05-25T07:35:49;5.13;;;3.15;;
7571;SDS011;3827;49.928;8.548;2023-05-25T07:38:16;4.30;;;3.15;;
7571;SDS011;3827;49.928;8.548;2023-05-25T07:40:43;4.55;;;2.95;;
7571;SDS011;3827;49.928;8.548;2023-05-25T07:43:11;4.40;;;2.90;;
7571;SDS011;3827;49.928;8.548;2023-05-25T07:45:38;5.47;;;3.50;;
7571;SDS011;3827;49.928;8.548;2023-05-25T07:48:05;4.85;;;3.22;;
7571;SDS011;3827;49.928;8.548;2023-05-25T07:50:34;5.68;;;3.00;;
7571;SDS011;3827;49.928;8.548;2023-05-25T07:53:01;4.43;;;2.65;;
7571;SDS011;3827;49.928;8.548;2023-05-25T07:55:28;5.50;;;2.80;;
7571;SDS011;3827;49.928;8.548;2023-05-25T07:57:55;4.47;;;3.05;;
7571;SDS011;3827;49.928;8.548;2023-05-25T08:00:22;5.88;;;2.90;;
7571;SDS011;3827;49.928;8.548;2023-05-25T08:02:48;4.70;;;2.90;;
7571;SDS011;3827;49.928;8.548;2023-05-25T08:05:15;6.75;;;3.30;;
7571;SDS011;3827;49.928;8.548;2023-05-25T08:07:44;4.57;;;2.97;;
7571;SDS011;3827;49.928;8.548;2023-05-25T08:10:11;3.80;;;2.97;;
7571;SDS011;3827;49.928;8.548;2023-05-25T08:12:38;4.60;;;2.63;;
7571;SDS011;3827;49.928;8.548;2023-05-25T08:15:05;4.45;;;2.97;;
7571;SDS011;3827;49.928;8.548;2023-05-25T08:17:32;5.13;;;2.70;;
7571;SDS011;3827;49.928;8.548;2023-05-25T08:19:59;4.28;;;2.92;;
7571;SDS011;3827;49.928;8.548;2023-05-25T08:22:26;3.85;;;2.58;;
7571;SDS011;3827;49.928;8.548;2023-05-25T08:24:54;4.50;;;2.67;;
7571;SDS011;3827;49.928;8.548;2023-05-25T08:27:21;5.13;;;2.72;;
7571;SDS011;3827;49.928;8.548;2023-05-25T08:29:48;5.03;;;2.65;;
7571;SDS011;3827;49.928;8.548;2023-05-25T08:32:15;5.07;;;2.37;;
7571;SDS011;3827;49.928;8.548;2023-05-25T08:34:41;3.43;;;2.40;;
7571;SDS011;3827;49.928;8.548;2023-05-25T08:37:08;3.20;;;2.50;;
7571;SDS011;3827;49.928;8.548;2023-05-25T08:39:35;4.03;;;2.65;;
7571;SDS011;3827;49.928;8.548;2023-05-25T08:42:04;3.33;;;2.63;;
7571;SDS011;3827;49.928;8.548;2023-05-25T08:44:34;3.40;;;2.40;;
7571;SDS011;3827;49.928;8.548;2023-05-25T08:47:02;3.70;;;2.38;;
7571;SDS011;3827;49.928;8.548;2023-05-25T08:49:32;2.95;;;2.15;;
7571;SDS011;3827;49.928;8.548;2023-05-25T08:52:01;3.22;;;2.00;;
7571;SDS011;3827;49.928;8.548;2023-05-25T08:54:31;3.42;;;2.50;;
7571;SDS011;3827;49.928;8.548;2023-05-25T08:57:00;4.28;;;2.70;;
7571;SDS011;3827;49.928;8.548;2023-05-25T08:59:35;5.65;;;2.55;;
7571;SDS011;3827;49.928;8.548;2023-05-25T09:02:12;3.42;;;2.13;;
7571;SDS011;3827;49.928;8.548;2023-05-25T09:04:47;4.90;;;2.35;;
7571;SDS011;3827;49.928;8.548;2023-05-25T09:07:14;3.60;;;2.10;;
7571;SDS011;3827;49.928;8.548;2023-05-25T09:09:41;4.57;;;2.40;;
7571;SDS011;3827;49.928;8.548;2023-05-25T09:12:10;3.30;;;2.10;;
7571;SDS011;3827;49.928;8.548;2023-05-25T09:14:37;2.80;;;2.20;;
7571;SDS011;3827;49.928;8.548;2023-05-25T09:17:09;3.25;;;2.30;;
7571;SDS011;3827;49.928;8.548;2023-05-25T09:19:37;5.05;;;2.30;;
7571;SDS011;3827;49.928;8.548;2023-05-25T09:22:04;3.20;;;2.22;;
7571;SDS011;3827;49.928;8.548;2023-05-25T09:24:31;2.93;;;2.30;;
7571;SDS011;3827;49.928;8.548;2023-05-25T09:26:59;4.40;;;2.40;;
7571;SDS011;3827;49.928;8.548;2023-05-25T09:29:28;4.07;;;2.35;;
7571;SDS011;3827;49.928;8.548;2023-05-25T09:31:56;3.47;;;2.33;;
7571;SDS011;3827;49.928;8.548;2023-05-25T09:34:23;4.75;;;2.40;;
7571;SDS011;3827;49.928;8.548;2023-05-25T09:36:55;2.58;;;2.17;;
7571;SDS011;3827;49.928;8.548;2023-05-25T09:39:22;3.95;;;2.50;;
7571;SDS011;3827;49.928;8.548;2023-05-25T09:41:51;4.03;;;2.47;;
7571;SDS011;3827;49.928;8.548;2023-05-25T09:44:18;3.67;;;2.20;;
7571;SDS011;3827;49.928;8.548;2023-05-25T09:46:46;2.55;;;2.13;;
7571;SDS011;3827;49.928;8.548;2023-05-25T09:49:13;3.85;;;2.28;;
7571;SDS011;3827;49.928;8.548;2023-05-25T09:51:40;3.30;;;1.90;;
7571;SDS011;3827;49.928;8.548;2023-05-25T09:54:08;4.43;;;2.05;;
7571;SDS011;3827;49.928;8.548;2023-05-25T09:56:35;2.75;;;1.77;;
7571;SDS011;3827;49.928;8.548;2023-05-25T09:59:02;3.33;;;1.90;;
7571;SDS011;3827;49.928;8.548;2023-05-25T10:01:30;3.15;;;2.25;;
7571;SDS011;3827;49.928;8.548;2023-05-25T10:03:59;2.40;;;2.08;;
7571;SDS011;3827;49.928;8.548;2023-05-25T10:06:26;3.70;;;2.30;;
7571;SDS011;3827;49.928;8.548;2023-05-25T10:08:55;2.30;;;1.88;;
7571;SDS011;3827;49.928;8.548;2023-05-25T10:11:23;2.38;;;1.88;;
7571;SDS011;3827;49.928;8.548;2023-05-25T10:13:51;3.72;;;2.20;;
7571;SDS011;3827;49.928;8.548;2023-05-25T10:18:51;3.33;;;2.35;;
7571;SDS011;3827;49.928;8.548;2023-05-25T10:21:23;2.00;;;1.73;;
7571;SDS011;3827;49.928;8.548;2023-05-25T10:23:53;3.83;;;2.30;;
7571;SDS011;3827;49.928;8.548;2023-05-25T10:26:27;3.88;;;2.25;;
7571;SDS011;3827;49.928;8.548;2023-05-25T10:28:58;4.00;;;2.28;;
7571;SDS011;3827;49.928;8.548;2023-05-25T10:31:28;2.92;;;2.20;;
7571;SDS011;3827;49.928;8.548;2023-05-25T10:33:58;3.03;;;2.30;;
7571;SDS011;3827;49.928;8.548;2023-05-25T10:36:27;2.42;;;2.08;;
7571;SDS011;3827;49.928;8.548;2023-05-25T10:38:54;2.80;;;2.22;;
7571;SDS011;3827;49.928;8.548;2023-05-25T10:41:22;3.33;;;2.08;;
7571;SDS011;3827;49.928;8.548;2023-05-25T10:43:49;2.45;;;2.15;;
7571;SDS011;3827;49.928;8.548;2023-05-25T10:46:17;3.45;;;2.55;;
7571;SDS011;3827;49.928;8.548;2023-05-25T10:48:44;3.70;;;2.20;;
7571;SDS011;3827;49.928;8.548;2023-05-25T10:51:12;3.07;;;2.33;;
7571;SDS011;3827;49.928;8.548;2023-05-25T10:53:43;3.28;;;2.30;;
7571;SDS011;3827;49.928;8.548;2023-05-25T10:56:11;3.08;;;2.40;;
7571;SDS011;3827;49.928;8.548;2023-05-25T10:58:39;3.43;;;2.20;;
7571;SDS011;3827;49.928;8.548;2023-05-25T11:01:08;2.63;;;2.15;;
7571;SDS011;3827;49.928;8.548;2023-05-25T11:03:55;3.13;;;2.40;;
7571;SDS011;3827;49.928;8.548;2023-05-25T11:09:34;4.13;;;2.30;;
7571;SDS011;3827;49.928;8.548;2023-05-25T11:12:08;1.98;;;1.77;;
7571;SDS011;3827;49.928;8.548;2023-05-25T11:14:47;4.07;;;1.83;;
7571;SDS011;3827;49.928;8.548;2023-05-25T11:17:43;3.53;;;2.10;;
7571;SDS011;3827;49.928;8.548;2023-05-25T11:20:19;3.17;;;2.08;;
7571;SDS011;3827;49.928;8.548;2023-05-25T11:22:49;2.33;;;2.00;;
7571;SDS011;3827;49.928;8.548;2023-05-25T11:25:37;3.08;;;2.17;;
7571;SDS011;3827;49.928;8.548;2023-05-25T11:28:06;3.77;;;2.17;;
7571;SDS011;3827;49.928;8.548;2023-05-25T11:30:35;2.58;;;2.10;;
7571;SDS011;3827;49.928;8.548;2023-05-25T11:33:03;4.93;;;2.33;;
7571;SDS011;3827;49.928;8.548;2023-05-25T11:35:31;4.22;;;2.15;;
7571;SDS011;3827;49.928;8.548;2023-05-25T11:38:02;2.50;;;2.13;;
7571;SDS011;3827;49.928;8.548;2023-05-25T11:40:30;2.72;;;2.00;;
7571;SDS011;3827;49.928;8.548;2023-05-25T11:42:59;4.47;;;2.07;;
7571;SDS011;3827;49.928;8.548;2023-05-25T11:45:28;2.17;;;1.98;;
7571;SDS011;3827;49.928;8.548;2023-05-25T11:47:56;2.20;;;2.00;;
7571;SDS011;3827;49.928;8.548;2023-05-25T11:50:22;3.50;;;2.30;;
7571;SDS011;3827;49.928;8.548;2023-05-25T11:52:49;2.80;;;1.70;;
7571;SDS011;3827;49.928;8.548;2023-05-25T11:55:16;3.15;;;2.10;;
7571;SDS011;3827;49.928;8.548;2023-05-25T11:57:43;2.50;;;1.98;;
7571;SDS011;3827;49.928;8.548;2023-05-25T12:00:12;2.40;;;2.17;;
7571;SDS011;3827;49.928;8.548;2023-05-25T12:02:51;2.63;;;2.40;;
7571;SDS011;3827;49.928;8.548;2023-05-25T12:05:18;3.03;;;2.07;;
7571;SDS011;3827;49.928;8.548;2023-05-25T12:07:45;3.00;;;2.28;;
7571;SDS011;3827;49.928;8.548;2023-05-25T12:10:12;3.50;;;2.10;;
7571;SDS011;3827;49.928;8.548;2023-05-25T12:12:41;2.22;;;1.88;;
7571;SDS011;3827;49.928;8.548;2023-05-25T12:15:08;2.87;;;2.07;;
7571;SDS011;3827;49.928;8.548;2023-05-25T12:17:38;2.42;;;2.22;;
7571;SDS011;3827;49.928;8.548;2023-05-25T12:20:07;2.63;;;2.20;;
7571;SDS011;3827;49.928;8.548;2023-05-25T12:22:35;3.50;;;2.10;;
7571;SDS011;3827;49.928;8.548;2023-05-25T12:25:03;3.30;;;2.28;;
7571;SDS011;3827;49.928;8.548;2023-05-25T12:27:31;3.17;;;2.17;;
7571;SDS011;3827;49.928;8.548;2023-05-25T12:29:58;2.58;;;2.38;;
7571;SDS011;3827;49.928;8.548;2023-05-25T12:32:25;2.90;;;1.80;;
7571;SDS011;3827;49.928;8.548;2023-05-25T12:35:01;2.95;;;2.47;;
7571;SDS011;3827;49.928;8.548;2023-05-25T12:37:29;2.20;;;1.93;;
7571;SDS011;3827;49.928;8.548;2023-05-25T12:39:56;4.10;;;2.00;;
7571;SDS011;3827;49.928;8.548;2023-05-25T12:42:23;2.72;;;2.03;;
7571;SDS011;3827;49.928;8.548;2023-05-25T12:44:53;3.00;;;2.42;;
7571;SDS011;3827;49.928;8.548;2023-05-25T12:47:21;3.17;;;2.20;;
7571;SDS011;3827;49.928;8.548;2023-05-25T12:49:52;3.58;;;2.17;;
7571;SDS011;3827;49.928;8.548;2023-05-25T12:52:33;3.00;;;2.20;;
7571;SDS011;3827;49.928;8.548;2023-05-25T12:57:46;4.00;;;2.33;;
7571;SDS011;3827;49.928;8.548;2023-05-25T13:00:16;2.92;;;2.15;;
7571;SDS011;3827;49.928;8.548;2023-05-25T13:02:44;3.00;;;2.22;;
7571;SDS011;3827;49.928;8.548;2023-05-25T13:05:18;2.45;;;2.22;;
7571;SDS011;3827;49.928;8.548;2023-05-25T13:07:47;2.45;;;2.10;;
7571;SDS011;3827;49.928;8.548;2023-05-25T13:10:14;3.08;;;2.08;;
7571;SDS011;3827;49.928;8.548;2023-05-25T13:12:42;3.70;;;2.35;;
7571;SDS011;3827;49.928;8.548;2023-05-25T13:15:09;2.50;;;2.00;;
7571;SDS011;3827;49.928;8.548;2023-05-25T13:17:37;3.95;;;2.20;;
7571;SDS011;3827;49.928;8.548;2023-05-25T13:20:06;2.55;;;2.20;;
7571;SDS011;3827;49.928;8.548;2023-05-25T13:22:33;2.55;;;2.13;;
7571;SDS011;3827;49.928;8.548;2023-05-25T13:25:01;3.40;;;2.03;;
7571;SDS011;3827;49.928;8.548;2023-05-25T13:27:28;3.63;;;2.73;;
7571;SDS011;3827;49.928;8.548;2023-05-25T13:29:55;2.95;;;2.20;;
7571;SDS011;3827;49.928;8.548;2023-05-25T13:32:23;3.53;;;2.35;;
7571;SDS011;3827;49.928;8.548;2023-05-25T13:34:50;2.65;;;2.20;;
7571;SDS011;3827;49.928;8.548;2023-05-25T13:37:23;5.43;;;2.38;;
7571;SDS011;3827;49.928;8.548;2023-05-25T13:39:50;3.45;;;2.28;;
7571;SDS011;3827;49.928;8.548;2023-05-25T13:42:18;3.17;;;2.22;;
7571;SDS011;3827;49.928;8.548;2023-05-25T13:44:45;3.03;;;2.70;;
7571;SDS011;3827;49.928;8.548;2023-05-25T13:47:12;4.57;;;2.53;;
7571;SDS011;3827;49.928;8.548;2023-05-25T13:49:39;3.58;;;2.30;;
7571;SDS011;3827;49.928;8.548;2023-05-25T13:52:06;4.47;;;2.38;;
7571;SDS011;3827;49.928;8.548;2023-05-25T13:54:32;2.70;;;2.13;;
7571;SDS011;3827;49.928;8.548;2023-05-25T13:56:59;2.90;;;2.00;;
7571;SDS011;3827;49.928;8.548;2023-05-25T13:59:28;4.40;;;2.20;;
7571;SDS011;3827;49.928;8.548;2023-05-25T14:01:54;2.53;;;2.30;;
7571;SDS011;3827;49.928;8.548;2023-05-25T14:04:21;3.05;;;2.28;;
7571;SDS011;3827;49.928;8.548;2023-05-25T14:06:48;2.38;;;2.15;;
7571;SDS011;3827;49.928;8.548;2023-05-25T14:09:15;3.05;;;2.20;;
7571;SDS011;3827;49.928;8.548;2023-05-25T14:11:42;5.25;;;2.50;;
7571;SDS011;3827;49.928;8.548;2023-05-25T14:14:09;3.43;;;2.50;;
7571;SDS011;3827;49.928;8.548;2023-05-25T14:16:37;3.15;;;2.05;;
7571;SDS011;3827;49.928;8.548;2023-05-25T14:19:04;2.63;;;2.38;;
7571;SDS011;3827;49.928;8.548;2023-05-25T14:21:30;2.95;;;2.45;;
7571;SDS011;3827;49.928;8.548;2023-05-25T14:23:58;2.60;;;2.35;;
7571;SDS011;3827;49.928;8.548;2023-05-25T14:26:25;2.38;;;2.00;;
7571;SDS011;3827;49.928;8.548;2023-05-25T14:28:52;3.67;;;2.60;;
7571;SDS011;3827;49.928;8.548;2023-05-25T14:31:19;2.97;;;2.53;;
7571;SDS011;3827;49.928;8.548;2023-05-25T14:33:47;3.97;;;2.50;;
7571;SDS011;3827;49.928;8.548;2023-05-25T14:36:14;2.75;;;2.40;;
7571;SDS011;3827;49.928;8.548;2023-05-25T14:38:40;3.03;;;2.23;;
7571;SDS011;3827;49.928;8.548;2023-05-25T14:41:07;3.40;;;2.58;;
7571;SDS011;3827;49.928;8.548;2023-05-25T14:43:34;3.05;;;2.40;;
7571;SDS011;3827;49.928;8.548;2023-05-25T14:46:01;2.67;;;2.42;;
7571;SDS011;3827;49.928;8.548;2023-05-25T14:48:28;2.83;;;2.27;;
7571;SDS011;3827;49.928;8.548;2023-05-25T14:50:56;2.67;;;2.20;;
7571;SDS011;3827;49.928;8.548;2023-05-25T14:53:24;3.15;;;2.50;;
7571;SDS011;3827;49.928;8.548;2023-05-25T14:55:51;4.45;;;2.40;;
7571;SDS011;3827;49.928;8.548;2023-05-25T14:58:18;2.83;;;2.33;;
7571;SDS011;3827;49.928;8.548;2023-05-25T15:00:44;3.42;;;2.35;;
7571;SDS011;3827;49.928;8.548;2023-05-25T15:03:11;4.40;;;2.90;;
7571;SDS011;3827;49.928;8.548;2023-05-25T15:05:38;3.67;;;2.50;;
7571;SDS011;3827;49.928;8.548;2023-05-25T15:08:06;4.55;;;2.70;;
7571;SDS011;3827;49.928;8.548;2023-05-25T15:10:33;3.00;;;2.63;;
7571;SDS011;3827;49.928;8.548;2023-05-25T15:13:00;4.53;;;2.78;;
7571;SDS011;3827;49.928;8.548;2023-05-25T15:15:27;3.67;;;2.58;;
7571;SDS011;3827;49.928;8.548;2023-05-25T15:17:54;4.13;;;2.70;;
7571;SDS011;3827;49.928;8.548;2023-05-25T15:20:20;4.65;;;2.78;;
7571;SDS011;3827;49.928;8.548;2023-05-25T15:22:47;3.15;;;2.60;;
7571;SDS011;3827;49.928;8.548;2023-05-25T15:25:16;4.20;;;2.72;;
7571;SDS011;3827;49.928;8.548;2023-05-25T15:27:43;4.25;;;2.70;;
7571;SDS011;3827;49.928;8.548;2023-05-25T15:30:10;4.27;;;2.77;;